Friday, January 18, 2019, 2:35 AM EST
Back to Local

KVAY, Mt Holly South Jersey Rgnl

Location: Medford, NJ, United States Lat: 39.933
Local Time: 2:35 AM EST ( 7:35 GMT) Lon: -74.833
Time Zone: US/Eastern Elev: 52 ft

Show me the last for .
Show Coded

Time T Td Feel RH Dir Speed Gust Alt SLP Vis Weather Sky Remarks
2019-01-18 02:24 29 26 25 88 30° 3 - 30.17 - 1 -SN BR OVC029 1-hr Precip Total: Trace
2019-01-18 01:54 29 26 25 88 20° 3 - 30.18 30.18 5 -SN BR BKN043 OVC075 1-hr Precip Total: Trace
2019-01-18 01:24 29 26 - 88 - Calm - 30.18 - 2 -SN BR OVC034 1-hr Precip Total: Trace
2019-01-18 00:54 28 25 - 88 - Calm - 30.19 30.19 5 -SN BR OVC050 1-hr Precip Total: Trace
6-hr Precip Total (1am): 0.00"
6-hr Min Temp (1am): 28.0°F
6-hr Max Temp (1am): 30.0°F
2019-01-18 00:40 28 25 24 88 350° 3 - 30.20 - 5 -SN BR SCT031 BKN047 OVC055 1-hr Precip Total: Trace
2019-01-18 00:33 28 25 24 88 330° 3 - 30.21 - 3 -SN BR BKN029 BKN047 OVC055 1-hr Precip Total: Trace
2019-01-18 00:04 29 24 25 81 330° 3 - 30.22 - 2 -SN OVC033 1-hr Precip Total: Trace
2019-01-17 23:54 29 24 25 81 340° 3 - 30.22 30.22 1 -SN OVC031 1-hr Precip Total: Trace
24-hr Min Temp (12am): 24.1°F
24-hr Max Temp (12am): 36.0°F
2019-01-17 23:42 29 23 25 78 340° 3 - 30.22 - 2 -SN BKN035 OVC060 1-hr Precip Total: Trace
2019-01-17 22:54 30 22 - 71 - Calm - 30.24 30.24 10 OVC055 None
2019-01-17 21:54 30 21 - 68 - Calm - 30.24 30.24 10 OVC042 None
2019-01-17 20:54 30 20 25 65 80° 5 - 30.24 30.24 10 FEW055 BKN080 OVC100 None
2019-01-17 19:54 29 19 25 66 90° 3 - 30.28 30.28 10 SCT050 None
2019-01-17 18:54 29 18 - 63 - Calm - 30.30 30.30 10 CLR 6-hr Min Temp (7pm): 28.9°F
6-hr Max Temp (7pm): 33.1°F
2019-01-17 17:54 30 17 26 58 120° 3 - 30.31 30.31 10 CLR None
2019-01-17 16:54 31 15 25 51 130° 6 - 30.30 30.30 10 CLR None
2019-01-17 15:54 33 6 29 31 110° 5 - 30.30 30.30 10 CLR None
2019-01-17 14:54 33 7 - 32 - Calm - 30.30 30.30 10 CLR None
2019-01-17 13:54 33 6 29 31 70° 5 - 30.34 30.34 10 CLR None
2019-01-17 12:54 32 5 - 31 - Calm - 30.36 30.37 10 CLR 6-hr Min Temp (1pm): 24.1°F
6-hr Max Temp (1pm): 32.0°F
2019-01-17 11:54 32 5 29 31 Variable 3 - 30.39 30.39 10 CLR None
2019-01-17 10:54 31 5 26 32 Variable 5 - 30.42 30.42 10 CLR None
2019-01-17 09:54 29 7 22 38 360° 7 - 30.42 30.42 10 CLR None
2019-01-17 08:54 29 11 21 46 360° 8 - 30.41 30.41 10 CLR None
2019-01-17 07:54 26 11 21 52 340° 5 - 30.39 30.39 10 CLR None
2019-01-17 06:54 26 13 17 56 360° 9 - 30.38 30.38 10 CLR 6-hr Min Temp (7am): 26.1°F
6-hr Max Temp (7am): 34.0°F
2019-01-17 05:54 28 15 20 57 350° 8 - 30.35 30.35 10 CLR None
2019-01-17 04:54 28 16 22 60 360° 6 - 30.33 30.33 10 CLR None
2019-01-17 03:54 29 16 23 57 360° 6 - 30.31 30.31 10 CLR None
2019-01-17 02:54 31 16 27 53 Variable 3 - 30.32 30.32 10 CLR None

Support USWX by starting your Amazon purchase here.